createdAt,value
2018-04-18T00:02:09.244Z,22.30
2018-04-18T00:04:37.155Z,14.13
2018-04-18T00:07:05.162Z,17.13
2018-04-18T00:09:33.872Z,14.30
2018-04-18T00:12:01.798Z,18.20
2018-04-18T00:14:29.817Z,25.47
2018-04-18T00:16:57.756Z,19.20
2018-04-18T00:19:26.504Z,21.10
2018-04-18T00:21:54.437Z,18.87
2018-04-18T00:24:22.443Z,18.90
2018-04-18T00:26:50.469Z,16.00
2018-04-18T00:29:18.473Z,12.30
2018-04-18T00:31:46.483Z,18.90
2018-04-18T00:34:15.175Z,17.03
2018-04-18T00:36:43.887Z,17.13
2018-04-18T00:39:11.915Z,16.80
2018-04-18T00:41:39.967Z,15.23
2018-04-18T00:44:07.989Z,23.43
2018-04-18T00:46:35.928Z,14.83
2018-04-18T00:49:03.886Z,16.03
2018-04-18T00:51:31.836Z,15.73
2018-04-18T00:53:59.752Z,19.30
2018-04-18T00:56:27.711Z,20.43
2018-04-18T00:58:56.473Z,13.53
2018-04-18T01:01:24.416Z,15.97
2018-04-18T01:03:52.422Z,12.03
2018-04-18T01:06:20.391Z,15.60
2018-04-18T01:08:48.405Z,19.13
2018-04-18T01:11:16.329Z,13.93
2018-04-18T01:13:44.336Z,12.30
2018-04-18T01:16:12.295Z,13.73
2018-04-18T01:18:41.064Z,17.10
2018-04-18T01:21:09.761Z,15.10
2018-04-18T01:23:38.502Z,17.13
2018-04-18T01:26:06.529Z,16.60
2018-04-18T01:28:34.533Z,14.83
2018-04-18T01:31:02.463Z,16.60
2018-04-18T01:33:31.306Z,17.27
2018-04-18T01:35:59.294Z,17.03
2018-04-18T01:38:27.323Z,17.17
2018-04-18T01:40:55.308Z,17.33
2018-04-18T01:43:23.237Z,12.03
2018-04-18T01:45:51.255Z,15.93
2018-04-18T01:48:19.167Z,13.30
2018-04-18T01:50:47.124Z,15.80
2018-04-18T01:53:15.901Z,18.60
2018-04-18T01:55:43.801Z,18.27
2018-04-18T01:58:11.723Z,22.57
2018-04-18T02:00:39.864Z,22.27
2018-04-18T02:03:07.795Z,18.27
2018-04-18T02:05:36.579Z,18.90
2018-04-18T02:08:05.269Z,14.93
2018-04-18T02:10:34.016Z,27.23
2018-04-18T02:13:01.940Z,19.50
2018-04-18T02:15:29.875Z,18.73
2018-04-18T02:17:57.856Z,15.20
2018-04-18T02:20:26.636Z,13.93
2018-04-18T02:22:55.480Z,17.07
2018-04-18T02:25:23.396Z,22.57
2018-04-18T02:27:52.130Z,22.03
2018-04-18T02:30:20.070Z,12.07
2018-04-18T02:32:48.095Z,21.20
2018-04-18T02:35:16.071Z,14.23
2018-04-18T02:37:44.048Z,19.63
2018-04-18T02:40:12.015Z,16.30
2018-04-18T02:42:39.976Z,24.23
2018-04-18T02:45:08.014Z,19.90
2018-04-18T02:47:35.938Z,12.17
2018-04-18T02:50:04.801Z,20.13
2018-04-18T02:52:32.813Z,12.10
2018-04-18T02:55:00.836Z,15.33
2018-04-18T02:57:28.853Z,16.10
2018-04-18T02:59:56.927Z,13.30
2018-04-18T03:02:24.955Z,18.70
2018-04-18T03:04:52.891Z,16.20
2018-04-18T03:07:20.817Z,13.93
2018-04-18T03:09:49.503Z,14.00
2018-04-18T03:12:18.304Z,22.47
2018-04-18T03:14:46.230Z,15.40
2018-04-18T03:17:14.195Z,25.60
2018-04-18T03:19:42.131Z,24.90
2018-04-18T03:22:10.054Z,16.40
2018-04-18T03:24:38.764Z,19.73
2018-04-18T03:27:06.714Z,14.27
2018-04-18T03:29:35.494Z,18.10
2018-04-18T03:32:04.215Z,23.97
2018-04-18T03:34:32.204Z,17.63
2018-04-18T03:37:00.141Z,16.50
2018-04-18T03:39:28.144Z,17.20
2018-04-18T03:41:56.074Z,17.97
2018-04-18T03:44:23.992Z,18.53
2018-04-18T03:46:51.928Z,19.30
2018-04-18T03:49:19.837Z,15.90
2018-04-18T03:51:47.832Z,19.13
2018-04-18T03:54:16.586Z,16.13
2018-04-18T03:56:44.584Z,19.93
2018-04-18T03:59:13.289Z,16.93
2018-04-18T04:01:41.232Z,19.30
2018-04-18T04:04:09.223Z,21.20
2018-04-18T04:06:37.252Z,19.77
2018-04-18T04:09:06.012Z,19.43
2018-04-18T04:11:33.960Z,23.67
2018-04-18T04:14:01.971Z,22.30
2018-04-18T04:16:41.760Z,16.70
2018-04-18T04:19:22.349Z,17.27
2018-04-18T04:22:02.190Z,14.77
2018-04-18T04:24:38.253Z,18.03
2018-04-18T04:27:06.271Z,15.53
2018-04-18T04:29:36.028Z,17.70
2018-04-18T04:32:04.020Z,25.73
2018-04-18T04:34:32.092Z,18.93
2018-04-18T04:37:00.137Z,18.47
2018-04-18T04:39:28.860Z,19.70
2018-04-18T04:41:56.819Z,18.80
2018-04-18T04:44:24.756Z,13.60
2018-04-18T04:46:52.708Z,18.13
2018-04-18T04:49:21.401Z,19.60
2018-04-18T04:51:50.139Z,16.60
2018-04-18T04:54:18.075Z,16.87
2018-04-18T04:56:45.996Z,15.13
2018-04-18T04:59:13.916Z,17.60
2018-04-18T05:01:41.831Z,16.27
2018-04-18T05:04:09.844Z,15.17
2018-04-18T05:06:37.836Z,16.53
2018-04-18T05:09:06.748Z,17.47
2018-04-18T05:11:34.748Z,26.80
2018-04-18T05:14:03.620Z,19.63
2018-04-18T05:16:31.543Z,18.87
2018-04-18T05:18:59.475Z,19.27
2018-04-18T05:21:28.202Z,16.40
2018-04-18T05:23:56.286Z,22.50
2018-04-18T05:26:24.394Z,19.87
2018-04-18T05:28:52.472Z,18.90
2018-04-18T05:31:20.459Z,25.93
2018-04-18T05:33:49.163Z,17.40
2018-04-18T05:36:17.183Z,17.33
2018-04-18T05:38:45.172Z,16.13
2018-04-18T05:41:13.966Z,16.87
2018-04-18T05:43:42.677Z,12.57
2018-04-18T05:46:10.661Z,21.70
2018-04-18T05:48:38.694Z,22.40
2018-04-18T05:51:06.647Z,13.10
2018-04-18T05:53:35.448Z,17.47
2018-04-18T05:56:04.179Z,25.33
2018-04-18T05:58:32.193Z,20.67
2018-04-18T06:01:00.180Z,16.30
2018-04-18T06:03:28.212Z,31.40
2018-04-18T06:05:56.244Z,21.70
2018-04-18T06:08:24.241Z,28.50
2018-04-18T06:10:52.911Z,19.37
2018-04-18T06:13:20.842Z,22.97
2018-04-18T06:15:49.536Z,17.30
2018-04-18T06:18:18.248Z,26.43
2018-04-18T06:20:46.167Z,28.03
2018-04-18T06:23:14.081Z,28.63
2018-04-18T06:25:42.095Z,26.37
2018-04-18T06:28:10.007Z,22.90
2018-04-18T06:30:37.962Z,24.10
2018-04-18T06:33:06.731Z,21.07
2018-04-18T06:35:35.512Z,19.53
2018-04-18T06:38:03.557Z,22.30
2018-04-18T06:40:31.528Z,21.13
2018-04-18T06:42:59.468Z,24.70
2018-04-18T06:45:27.484Z,19.70
2018-04-18T06:47:55.424Z,24.37
2018-04-18T06:50:23.410Z,23.73
2018-04-18T06:52:51.360Z,27.33
2018-04-18T06:55:19.303Z,21.87
2018-04-18T06:57:47.231Z,25.37
2018-04-18T07:00:15.219Z,29.00
2018-04-18T07:02:43.987Z,25.30
2018-04-18T07:05:11.997Z,20.83
2018-04-18T07:07:39.907Z,23.17
2018-04-18T07:10:07.839Z,24.70
2018-04-18T07:12:35.766Z,32.97
2018-04-18T07:15:03.724Z,24.00
2018-04-18T07:17:31.628Z,27.03
2018-04-18T07:19:59.746Z,23.57
2018-04-18T07:22:27.691Z,24.03
2018-04-18T07:24:55.660Z,22.37
2018-04-18T07:27:23.761Z,23.37
2018-04-18T07:29:51.795Z,23.70
2018-04-18T07:32:19.803Z,22.60
2018-04-18T07:34:47.801Z,34.10
2018-04-18T07:37:16.548Z,26.53
2018-04-18T07:39:44.596Z,27.07
2018-04-18T07:42:12.573Z,47.00
2018-04-18T07:44:40.496Z,24.33
2018-04-18T07:47:09.210Z,28.70
2018-04-18T07:49:38.571Z,19.70
2018-04-18T07:52:06.670Z,23.10
2018-04-18T07:54:34.641Z,29.33
2018-04-18T07:57:02.548Z,27.07
2018-04-18T07:59:30.563Z,25.70
2018-04-18T08:01:59.297Z,22.20
2018-04-18T08:04:27.281Z,24.47
2018-04-18T08:06:55.276Z,21.73
2018-04-18T08:09:23.284Z,24.17
2018-04-18T08:11:51.321Z,27.43
2018-04-18T08:14:20.008Z,20.33
2018-04-18T08:16:48.789Z,20.93
2018-04-18T08:19:16.700Z,17.83
2018-04-18T08:21:44.806Z,22.37
2018-04-18T08:24:12.739Z,28.60
2018-04-18T08:26:40.792Z,21.93
2018-04-18T08:29:09.499Z,15.40
2018-04-18T08:31:37.560Z,17.73
2018-04-18T08:34:05.531Z,16.80
2018-04-18T08:36:33.601Z,18.27
2018-04-18T08:39:01.542Z,20.50
2018-04-18T08:41:30.260Z,19.47
2018-04-18T08:43:58.168Z,15.20
2018-04-18T08:46:26.139Z,18.43
2018-04-18T08:48:54.126Z,17.50
2018-04-18T08:51:22.842Z,21.47
2018-04-18T08:53:50.868Z,21.93
2018-04-18T08:56:18.884Z,19.70
2018-04-18T08:58:46.823Z,16.03
2018-04-18T09:01:14.767Z,14.40
2018-04-18T09:03:43.663Z,17.43
2018-04-18T09:06:12.072Z,25.10
2018-04-18T09:08:40.933Z,18.80
2018-04-18T09:11:08.892Z,18.20
2018-04-18T09:13:36.921Z,18.10
2018-04-18T09:16:04.879Z,17.93
2018-04-18T09:18:33.565Z,17.47
2018-04-18T09:21:02.319Z,17.03
2018-04-18T09:23:30.207Z,20.27
2018-04-18T09:25:58.863Z,19.70
2018-04-18T09:28:26.866Z,21.93
2018-04-18T09:30:54.795Z,16.00
2018-04-18T09:33:22.685Z,22.83
2018-04-18T09:35:50.618Z,19.70
2018-04-18T09:38:18.660Z,18.23
2018-04-18T09:40:46.562Z,19.63
2018-04-18T09:43:14.479Z,18.40
2018-04-18T09:45:43.108Z,19.20
2018-04-18T09:48:11.067Z,15.53
2018-04-18T09:50:38.978Z,17.80
2018-04-18T09:53:06.857Z,17.73
2018-04-18T09:55:35.517Z,16.50
2018-04-18T09:58:03.484Z,14.53
2018-04-18T10:00:37.112Z,17.10
2018-04-18T10:03:05.826Z,18.20
2018-04-18T10:05:33.703Z,14.33
2018-04-18T10:08:01.617Z,13.50
2018-04-18T10:10:29.588Z,13.63
2018-04-18T10:12:57.478Z,10.47
2018-04-18T10:15:26.213Z,10.07
2018-04-18T10:17:54.169Z,8.77
2018-04-18T10:20:22.076Z,12.53
2018-04-18T10:22:50.141Z,8.33
2018-04-18T10:25:18.154Z,10.80
2018-04-18T10:27:46.083Z,8.60
2018-04-18T10:30:14.014Z,9.03
2018-04-18T10:32:42.087Z,8.77
2018-04-18T10:35:10.092Z,7.80
2018-04-18T10:37:38.215Z,10.50
2018-04-18T10:40:06.165Z,11.20
2018-04-18T10:42:34.116Z,7.53
2018-04-18T10:45:02.829Z,6.83
2018-04-18T10:47:30.742Z,7.50
2018-04-18T10:49:58.709Z,9.93
2018-04-18T10:52:26.684Z,10.50
2018-04-18T10:54:54.716Z,8.13
2018-04-18T10:57:22.652Z,7.27
2018-04-18T10:59:51.352Z,6.97
2018-04-18T11:02:19.271Z,19.63
2018-04-18T11:04:47.209Z,7.10
2018-04-18T11:07:15.228Z,6.90
2018-04-18T11:09:43.163Z,8.47
2018-04-18T11:12:11.117Z,15.13
2018-04-18T11:14:39.069Z,11.47
2018-04-18T11:17:07.025Z,11.13
2018-04-18T11:19:34.981Z,7.27
2018-04-18T11:22:03.695Z,8.03
2018-04-18T11:24:31.688Z,7.53
2018-04-18T11:26:59.656Z,8.13
2018-04-18T11:29:27.683Z,10.13
2018-04-18T11:31:56.384Z,8.13
2018-04-18T11:34:24.313Z,9.13
2018-04-18T11:36:52.263Z,7.37
2018-04-18T11:39:20.188Z,7.47
2018-04-18T11:41:48.132Z,8.57
2018-04-18T11:44:16.800Z,9.27
2018-04-18T11:46:45.048Z,12.80
2018-04-18T11:49:13.141Z,8.20
2018-04-18T11:51:41.060Z,8.23
2018-04-18T11:54:09.055Z,6.30
2018-04-18T11:56:37.004Z,8.30
2018-04-18T11:59:04.954Z,9.57
2018-04-18T12:01:32.947Z,9.93
2018-04-18T12:04:00.889Z,8.90
2018-04-18T12:06:31.810Z,8.20
2018-04-18T12:08:59.812Z,9.23
2018-04-18T12:11:27.719Z,6.30
2018-04-18T12:13:56.483Z,6.70
2018-04-18T12:16:24.490Z,6.00
2018-04-18T12:18:52.425Z,6.60
2018-04-18T12:21:20.409Z,6.27
2018-04-18T12:23:49.021Z,9.60
2018-04-18T12:26:16.961Z,9.43
2018-04-18T12:28:44.869Z,10.80
2018-04-18T12:31:13.620Z,6.63
2018-04-18T12:33:41.631Z,8.80
2018-04-18T12:36:10.341Z,8.70
2018-04-18T12:38:38.260Z,7.27
2018-04-18T12:41:06.206Z,5.30
2018-04-18T12:43:34.328Z,10.23
2018-04-18T12:46:03.056Z,7.27
2018-04-18T12:48:30.969Z,5.90
2018-04-18T12:50:59.620Z,9.10
2018-04-18T12:53:27.525Z,7.80
2018-04-18T12:55:56.314Z,11.77
2018-04-18T12:58:25.020Z,7.70
2018-04-18T13:00:52.954Z,11.00
2018-04-18T13:03:20.901Z,9.43
2018-04-18T13:05:48.861Z,5.37
2018-04-18T13:08:16.804Z,7.20
2018-04-18T13:10:44.759Z,7.63
2018-04-18T13:13:12.677Z,9.63
2018-04-18T13:15:40.624Z,11.43
2018-04-18T13:18:08.687Z,5.67
2018-04-18T13:20:36.643Z,6.33
2018-04-18T13:23:04.708Z,10.60
2018-04-18T13:25:32.702Z,6.47
2018-04-18T13:28:00.701Z,21.37
2018-04-18T13:30:28.617Z,5.70
2018-04-18T13:32:56.515Z,7.00
2018-04-18T13:35:24.456Z,5.73
2018-04-18T13:37:52.562Z,8.90
2018-04-18T13:40:20.562Z,7.47
2018-04-18T13:42:48.579Z,11.70
2018-04-18T13:45:16.551Z,7.07
2018-04-18T13:47:44.545Z,6.83
2018-04-18T13:50:12.481Z,7.07
2018-04-18T13:52:40.437Z,6.57
2018-04-18T13:55:08.435Z,6.90
2018-04-18T13:57:36.363Z,5.90
2018-04-18T14:00:05.123Z,10.43
2018-04-18T14:02:33.090Z,7.33
2018-04-18T14:05:01.009Z,6.13
2018-04-18T14:07:28.955Z,8.83
2018-04-18T14:09:57.673Z,9.93
2018-04-18T14:12:25.589Z,6.53
2018-04-18T14:14:53.542Z,8.53
2018-04-18T14:17:21.473Z,6.70
2018-04-18T14:19:49.460Z,8.50
2018-04-18T14:22:17.458Z,9.33
2018-04-18T14:24:45.472Z,9.47
2018-04-18T14:27:13.491Z,10.50
2018-04-18T14:29:41.437Z,9.03
2018-04-18T14:32:09.396Z,9.67
2018-04-18T14:34:37.308Z,6.17
2018-04-18T14:37:05.317Z,6.97
2018-04-18T14:39:33.248Z,10.37
2018-04-18T14:42:01.184Z,7.10
2018-04-18T14:44:29.100Z,8.53
2018-04-18T14:46:57.826Z,7.00
2018-04-18T14:49:25.740Z,9.20
2018-04-18T14:51:54.553Z,10.53
2018-04-18T14:54:22.541Z,6.40
2018-04-18T14:56:50.480Z,9.27
2018-04-18T14:59:19.220Z,6.63
2018-04-18T15:01:47.224Z,7.30
2018-04-18T15:04:16.049Z,7.20
2018-04-18T15:06:44.064Z,7.87
2018-04-18T15:09:12.054Z,7.50
2018-04-18T15:11:40.733Z,10.73
2018-04-18T15:14:08.620Z,8.83
2018-04-18T15:16:37.304Z,8.63
2018-04-18T15:19:05.980Z,9.03
2018-04-18T15:21:34.668Z,6.83
2018-04-18T15:24:03.375Z,12.30
2018-04-18T15:26:31.301Z,7.43
2018-04-18T15:28:59.217Z,9.40
2018-04-18T15:31:27.300Z,10.23
2018-04-18T15:33:55.289Z,8.70
2018-04-18T15:36:23.232Z,6.73
2018-04-18T15:38:51.220Z,6.30
2018-04-18T15:41:19.158Z,8.73
2018-04-18T15:43:47.080Z,8.20
2018-04-18T15:46:15.020Z,7.10
2018-04-18T15:48:42.928Z,8.50
2018-04-18T15:51:10.940Z,7.47
2018-04-18T15:53:38.923Z,12.17
2018-04-18T15:56:06.927Z,7.23
2018-04-18T15:58:34.835Z,9.80
2018-04-18T16:01:02.847Z,8.07
2018-04-18T16:03:30.799Z,9.43
2018-04-18T16:05:58.798Z,9.13
2018-04-18T16:08:26.684Z,7.97
2018-04-18T16:10:55.412Z,8.83
2018-04-18T16:13:23.415Z,8.03
2018-04-18T16:15:51.341Z,6.80
2018-04-18T16:18:19.277Z,8.50
2018-04-18T16:20:47.965Z,8.03
2018-04-18T16:23:16.708Z,10.97
2018-04-18T16:25:44.769Z,9.03
2018-04-18T16:28:12.757Z,7.83
2018-04-18T16:30:41.794Z,6.63
2018-04-18T16:33:10.612Z,9.20
2018-04-18T16:35:38.552Z,8.57
2018-04-18T16:38:07.272Z,10.63
2018-04-18T16:40:35.244Z,13.60
2018-04-18T16:43:03.184Z,7.63
2018-04-18T16:45:31.263Z,16.17
2018-04-18T16:47:59.229Z,13.17
2018-04-18T16:50:27.124Z,17.10
2018-04-18T16:52:55.129Z,8.80
2018-04-18T16:55:23.144Z,14.30
2018-04-18T16:57:51.152Z,11.73
2018-04-18T17:00:19.052Z,9.10
2018-04-18T17:02:46.980Z,13.00
2018-04-18T17:05:14.898Z,6.80
2018-04-18T17:07:42.936Z,8.70
2018-04-18T17:10:10.851Z,9.70
2018-04-18T17:12:38.841Z,8.43
2018-04-18T17:15:06.860Z,8.73
2018-04-18T17:17:35.616Z,5.93
2018-04-18T17:20:03.618Z,9.70
2018-04-18T17:22:32.371Z,6.63
2018-04-18T17:25:00.299Z,7.67
2018-04-18T17:27:28.237Z,8.27
2018-04-18T17:29:56.943Z,9.37
2018-04-18T17:32:24.866Z,15.30
2018-04-18T17:34:52.852Z,9.10
2018-04-18T17:37:20.779Z,9.00
2018-04-18T17:39:48.763Z,8.60
2018-04-18T17:42:16.730Z,9.10
2018-04-18T17:44:44.645Z,9.63
2018-04-18T17:47:13.364Z,13.33
2018-04-18T17:49:41.248Z,9.70
2018-04-18T17:52:09.938Z,11.77
2018-04-18T17:54:37.901Z,13.93
2018-04-18T17:57:05.851Z,13.97
2018-04-18T17:59:33.839Z,10.20
2018-04-18T18:02:01.769Z,9.00
2018-04-18T18:04:29.751Z,11.10
2018-04-18T18:06:57.661Z,9.70
2018-04-18T18:09:25.616Z,10.77
2018-04-18T18:11:53.609Z,12.60
2018-04-18T18:14:21.608Z,12.90
2018-04-18T18:16:50.313Z,11.97
2018-04-18T18:19:18.200Z,8.90
2018-04-18T18:21:46.232Z,8.07
2018-04-18T18:24:14.187Z,8.63
2018-04-18T18:26:42.861Z,11.60
2018-04-18T18:29:10.860Z,10.20
2018-04-18T18:31:38.880Z,8.67
2018-04-18T18:34:06.800Z,11.67
2018-04-18T18:36:34.721Z,8.10
2018-04-18T18:39:02.668Z,13.80
2018-04-18T18:41:30.620Z,15.50
2018-04-18T18:43:58.561Z,17.83
2018-04-18T18:46:27.265Z,14.67
2018-04-18T18:48:55.292Z,10.50
2018-04-18T18:51:23.373Z,12.63
2018-04-18T18:53:51.440Z,14.37
2018-04-18T18:56:19.651Z,13.13
2018-04-18T18:58:47.981Z,13.50
2018-04-18T19:01:16.287Z,10.00
2018-04-18T19:03:45.437Z,12.57
2018-04-18T19:06:14.659Z,14.47
2018-04-18T19:08:42.984Z,11.40
2018-04-18T19:11:11.407Z,13.37
2018-04-18T19:13:39.697Z,16.73
2018-04-18T19:16:08.030Z,13.03
2018-04-18T19:18:36.423Z,12.60
2018-04-18T19:21:05.407Z,16.20
2018-04-18T19:23:34.730Z,14.20
2018-04-18T19:26:03.894Z,22.63
2018-04-18T19:28:32.291Z,15.83
2018-04-18T19:31:00.597Z,12.47
2018-04-18T19:33:28.932Z,16.63
2018-04-18T19:35:57.391Z,15.00
2018-04-18T19:38:25.671Z,16.67
2018-04-18T19:40:54.127Z,13.87
2018-04-18T19:43:23.143Z,16.50
2018-04-18T19:45:52.338Z,13.30
2018-04-18T19:48:21.255Z,15.50
2018-04-18T19:50:50.378Z,16.90
2018-04-18T19:53:18.811Z,11.30
2018-04-18T19:55:47.801Z,20.20
2018-04-18T19:58:16.043Z,13.40
2018-04-18T20:00:47.306Z,19.93
2018-04-18T20:03:16.329Z,10.67
2018-04-18T20:05:44.656Z,20.57
2018-04-18T20:08:12.967Z,14.30
2018-04-18T20:10:41.227Z,15.60
2018-04-18T20:13:10.335Z,17.57
2018-04-18T20:15:38.767Z,24.80
2018-04-18T20:18:08.184Z,19.00
2018-04-18T20:20:36.534Z,16.60
2018-04-18T20:23:04.799Z,15.10
2018-04-18T20:25:33.136Z,15.10
2018-04-18T20:28:02.880Z,15.93
2018-04-18T20:30:31.753Z,15.40
2018-04-18T20:33:00.105Z,16.13
2018-04-18T20:35:29.138Z,19.23
2018-04-18T20:37:57.379Z,13.80
2018-04-18T20:40:27.335Z,16.63
2018-04-18T20:42:58.141Z,15.30
2018-04-18T20:45:27.189Z,14.90
2018-04-18T20:47:57.346Z,13.03
2018-04-18T20:50:26.386Z,14.83
2018-04-18T20:52:54.643Z,18.50
2018-04-18T20:55:22.983Z,14.23
2018-04-18T20:57:52.670Z,11.70
2018-04-18T21:00:22.010Z,12.53
2018-04-18T21:02:52.055Z,13.40
2018-04-18T21:05:21.645Z,14.60
2018-04-18T21:07:51.156Z,10.60
2018-04-18T21:10:19.848Z,10.00
2018-04-18T21:12:48.507Z,10.53
2018-04-18T21:15:17.853Z,12.87
2018-04-18T21:17:47.680Z,10.43
2018-04-18T21:20:19.945Z,11.73
2018-04-18T21:22:53.382Z,16.53
2018-04-18T21:25:22.775Z,15.20
2018-04-18T21:27:51.308Z,13.83
2018-04-18T21:30:20.018Z,9.70
2018-04-18T21:35:33.852Z,12.23
2018-04-18T21:38:03.051Z,15.97
2018-04-18T21:40:32.637Z,12.87
2018-04-18T21:43:00.974Z,14.47
2018-04-18T21:45:29.780Z,14.63
2018-04-18T21:47:59.671Z,12.57
2018-04-18T21:50:27.881Z,12.53
2018-04-18T21:52:56.070Z,11.77
2018-04-18T21:55:24.362Z,11.73
2018-04-18T21:57:52.684Z,15.63
2018-04-18T22:00:20.917Z,12.50
2018-04-18T22:02:49.122Z,10.80
2018-04-18T22:05:17.370Z,14.40
2018-04-18T22:07:45.595Z,13.43
2018-04-18T22:10:14.680Z,14.10
2018-04-18T22:12:42.839Z,11.93
2018-04-18T22:15:11.073Z,12.67
2018-04-18T22:17:39.250Z,10.73
2018-04-18T22:20:07.537Z,13.60
2018-04-18T22:22:35.822Z,13.17
2018-04-18T22:25:04.251Z,12.30
2018-04-18T22:27:32.501Z,16.07
2018-04-18T22:30:00.761Z,11.83
2018-04-18T22:32:28.965Z,9.80
2018-04-18T22:34:57.789Z,11.83
2018-04-18T22:37:25.720Z,10.50
2018-04-18T22:39:53.771Z,11.13
2018-04-18T22:42:21.693Z,10.37
2018-04-18T22:44:49.593Z,11.20
2018-04-18T22:47:18.379Z,13.67
2018-04-18T22:49:46.408Z,9.60
2018-04-18T22:52:14.356Z,15.07
2018-04-18T22:54:43.131Z,9.67
2018-04-18T22:57:11.096Z,15.47
2018-04-18T22:59:39.008Z,11.30
2018-04-18T23:02:07.011Z,11.07
2018-04-18T23:04:34.932Z,10.67
2018-04-18T23:07:03.148Z,13.60
2018-04-18T23:09:31.360Z,12.30
2018-04-18T23:11:59.320Z,10.53
2018-04-18T23:14:27.274Z,10.23
2018-04-18T23:16:55.256Z,10.93
2018-04-18T23:19:23.185Z,12.63
2018-04-18T23:21:51.204Z,11.93
2018-04-18T23:24:19.286Z,12.70
2018-04-18T23:26:48.074Z,10.07
2018-04-18T23:29:16.842Z,14.00
2018-04-18T23:31:44.876Z,11.27
2018-04-18T23:34:12.890Z,9.87
2018-04-18T23:36:40.892Z,13.20
2018-04-18T23:39:08.932Z,10.00
2018-04-18T23:41:36.897Z,13.13
2018-04-18T23:44:04.883Z,10.90
2018-04-18T23:46:33.660Z,11.70
2018-04-18T23:49:02.416Z,9.50
2018-04-18T23:51:30.416Z,11.80
2018-04-18T23:53:59.126Z,12.00
2018-04-18T23:56:27.104Z,15.50
2018-04-18T23:58:55.036Z,13.83
